Terminal Aerodrome Forecast
Issued by NWS Boston, MA

Home | Current Version | Previous Version | Text Only | Print | Product List | Glossary On
Versions: 1 2 3 4 5 6 7 8 9 10 11 12 13 14 15 16 17 18 19 20 21 22
000
FTUS41 KBOX 231311 AAB
TAFORH
TAF AMD
KORH 231311Z 2313/2412 09003KT 6SM BR OVC003
     FM231500 14005KT P6SM SCT003 BKN009
     FM231800 16007KT P6SM SCT009 BKN012
     FM232000 17007KT P6SM -RAPL OVC020
     FM232100 17007KT 3SM -RA BR OVC010
     FM240400 23009KT 2SM BR OVC008
     FM240900 27011KT P6SM BKN080=

USA.gov is the U.S. government's official web portal to all federal, state and local government web resources and services.